Time;durP1;ratioP1;P1;durP2;ratioP2;P2;SDS_P1;SDS_P2;PMS_P1;PMS_P2;Temp;Humidity;BMP_temperature;BMP_pressure;BME280_temperature;BME280_humidity;BME280_pressure;Samples;Min_cycle;Max_cycle;Signal;HPM_P1;HPM_P2
2024/02/07 00:01:35;;;;;;;16.60;13.00;;;10.40;99.90;;;;;;5074816;28;20519;-75
2024/02/07 00:04:03;;;;;;;13.85;12.65;;;10.30;99.90;;;;;;5075428;28;20044;-75
2024/02/07 00:06:30;;;;;;;12.65;11.27;;;10.30;99.90;;;;;;5073577;28;20516;-75
2024/02/07 00:08:57;;;;;;;10.30;9.35;;;10.30;99.90;;;;;;5072845;28;20048;-75
2024/02/07 00:11:24;;;;;;;13.40;11.00;;;10.30;99.90;;;;;;5072153;28;20036;-75
2024/02/07 00:13:50;;;;;;;13.68;9.88;;;10.20;99.90;;;;;;5073905;28;20059;-75
2024/02/07 00:16:19;;;;;;;12.75;9.05;;;10.10;99.90;;;;;;5073199;28;20882;-76
2024/02/07 00:18:46;;;;;;;10.48;7.95;;;10.00;99.90;;;;;;5068184;28;20036;-76
2024/02/07 00:21:13;;;;;;;9.73;6.43;;;10.00;99.90;;;;;;5075023;28;20056;-75
2024/02/07 00:23:42;;;;;;;11.05;7.75;;;9.90;99.90;;;;;;5071117;28;20045;-78
2024/02/07 00:26:09;;;;;;;15.98;7.07;;;9.90;99.90;;;;;;5078414;28;20040;-76
2024/02/07 00:28:36;;;;;;;11.68;7.22;;;9.90;99.90;;;;;;5081675;28;20055;-76
2024/02/07 00:31:05;;;;;;;18.58;6.45;;;9.80;99.90;;;;;;5072866;28;20043;-76
2024/02/07 00:33:34;;;;;;;12.55;6.70;;;9.80;99.90;;;;;;5076436;28;20052;-76
2024/02/07 00:36:01;;;;;;;12.02;6.47;;;9.80;99.90;;;;;;5075796;28;20491;-77
2024/02/07 00:38:28;;;;;;;13.05;7.95;;;9.80;99.90;;;;;;5077366;28;20059;-76
2024/02/07 00:40:55;;;;;;;10.38;7.63;;;9.80;99.90;;;;;;5067108;28;20044;-76
2024/02/07 00:43:22;;;;;;;10.52;7.55;;;9.70;99.90;;;;;;5075983;28;20047;-77
2024/02/07 00:45:49;;;;;;;9.95;6.45;;;9.70;99.90;;;;;;5073697;28;20354;-76
2024/02/07 00:48:18;;;;;;;17.67;7.55;;;9.70;99.90;;;;;;5073663;28;20414;-77
2024/02/07 00:50:46;;;;;;;13.75;6.88;;;9.70;99.90;;;;;;5070363;28;20040;-76
2024/02/07 00:53:12;;;;;;;8.38;6.13;;;9.70;99.90;;;;;;5064636;28;20071;-77
2024/02/07 00:55:39;;;;;;;10.18;6.47;;;9.70;99.90;;;;;;5077485;28;20044;-77
2024/02/07 00:58:06;;;;;;;9.55;6.43;;;9.60;99.90;;;;;;5075535;28;20083;-76
2024/02/07 01:00:33;;;;;;;7.97;6.30;;;9.70;99.90;;;;;;5077842;28;20052;-75
2024/02/07 01:03:00;;;;;;;11.45;5.03;;;9.70;99.90;;;;;;5069371;28;20044;-77
2024/02/07 01:05:27;;;;;;;10.18;5.75;;;9.70;99.90;;;;;;5075089;28;20831;-76
2024/02/07 01:07:54;;;;;;;10.38;6.68;;;9.80;99.90;;;;;;5067666;28;20040;-77
2024/02/07 01:10:21;;;;;;;13.82;7.55;;;9.70;99.90;;;;;;5072591;28;20115;-76
2024/02/07 01:12:47;;;;;;;9.88;6.00;;;9.70;99.90;;;;;;5068120;28;20071;-77
2024/02/07 01:15:14;;;;;;;9.65;7.07;;;9.80;99.90;;;;;;5074754;28;20048;-77
2024/02/07 01:17:41;;;;;;;10.60;6.25;;;9.80;99.90;;;;;;5100013;28;20064;-76
2024/02/07 01:20:12;;;;;;;8.95;5.55;;;9.80;99.90;;;;;;5094388;28;20063;-76
2024/02/07 01:22:39;;;;;;;13.68;8.15;;;9.80;99.90;;;;;;5109683;27;20051;-76
2024/02/07 01:25:06;;;;;;;6.70;5.18;;;9.80;99.90;;;;;;5093837;28;20048;-76
2024/02/07 01:27:33;;;;;;;6.38;5.55;;;9.80;99.90;;;;;;5096235;28;20573;-77
2024/02/07 01:30:03;;;;;;;7.35;6.35;;;9.80;99.90;;;;;;5077128;28;20052;-77
2024/02/07 01:32:30;;;;;;;7.95;5.03;;;9.80;99.90;;;;;;5070891;28;20527;-77
2024/02/07 01:34:57;;;;;;;9.15;4.53;;;9.80;99.90;;;;;;5074021;28;20139;-77
2024/02/07 01:37:24;;;;;;;8.23;4.35;;;9.70;99.90;;;;;;5075983;28;20112;-77
2024/02/07 01:39:51;;;;;;;11.20;5.30;;;9.70;99.90;;;;;;5074160;28;20050;-77
2024/02/07 01:42:18;;;;;;;5.72;4.30;;;9.70;99.90;;;;;;5092985;27;20048;-77
2024/02/07 01:44:47;;;;;;;4.72;4.25;;;9.60;99.90;;;;;;5075600;28;20074;-77
2024/02/07 01:47:13;;;;;;;7.50;5.30;;;9.70;99.90;;;;;;5076620;28;20047;-76
2024/02/07 01:49:50;;;;;;;5.68;3.85;;;9.70;99.90;;;;;;5074020;28;20056;-78
2024/02/07 01:52:21;;;;;;;9.07;4.32;;;9.70;99.90;;;;;;5069361;28;20195;-78
2024/02/07 01:54:48;;;;;;;7.88;3.72;;;9.70;99.90;;;;;;5061928;28;20052;-76
2024/02/07 01:57:15;;;;;;;5.90;3.80;;;9.70;99.90;;;;;;5089289;28;20570;-77
2024/02/07 01:59:42;;;;;;;7.38;4.20;;;9.70;99.90;;;;;;5081515;28;20123;-78
2024/02/07 02:02:11;;;;;;;9.13;4.07;;;9.80;99.90;;;;;;5072207;27;20920;-76
2024/02/07 02:04:39;;;;;;;5.57;3.38;;;9.80;99.90;;;;;;5071535;28;20127;-78
2024/02/07 02:07:07;;;;;;;5.28;3.47;;;9.80;99.90;;;;;;5070340;28;20040;-77
2024/02/07 02:09:34;;;;;;;4.18;3.78;;;9.90;99.90;;;;;;5078951;28;20189;-78
2024/02/07 02:12:01;;;;;;;4.88;3.58;;;10.00;99.90;;;;;;5071991;28;20036;-76
2024/02/07 02:14:29;;;;;;;10.90;3.42;;;10.00;99.90;;;;;;5075941;28;20062;-77
2024/02/07 02:16:55;;;;;;;8.23;4.75;;;10.00;99.90;;;;;;5075870;28;20623;-78
2024/02/07 02:19:22;;;;;;;4.70;3.42;;;10.00;99.90;;;;;;5080007;28;20050;-77
2024/02/07 02:22:04;;;;;;;6.72;3.60;;;10.00;99.90;;;;;;5067675;28;20070;-78
2024/02/07 02:25:15;;;;;;;5.88;2.97;;;9.90;99.90;;;;;;5078534;28;20048;-76
2024/02/07 02:27:56;;;;;;;2.28;1.83;;;9.60;99.90;;;;;;5080164;28;20067;-79
2024/02/07 02:30:33;;;;;;;3.40;2.53;;;9.00;99.90;;;;;;5078891;28;20097;-76
2024/02/07 02:33:08;;;;;;;3.05;2.25;;;8.70;99.90;;;;;;5073906;28;20051;-78
2024/02/07 02:35:38;;;;;;;2.92;2.20;;;8.50;99.90;;;;;;5072262;28;20391;-78
2024/02/07 02:38:05;;;;;;;2.58;2.08;;;8.20;99.90;;;;;;5076408;28;20062;-78
2024/02/07 02:40:32;;;;;;;2.58;2.10;;;8.00;99.90;;;;;;5078010;28;20582;-77
2024/02/07 02:43:00;;;;;;;2.72;1.90;;;7.80;99.90;;;;;;5068266;28;20075;-77
2024/02/07 02:45:26;;;;;;;4.13;2.38;;;7.80;99.90;;;;;;5068635;28;20043;-77
2024/02/07 02:47:54;;;;;;;3.38;2.20;;;7.70;99.90;;;;;;5075654;28;20036;-78
2024/02/07 02:50:25;;;;;;;3.90;2.13;;;7.50;99.90;;;;;;5093200;27;20047;-76
2024/02/07 02:52:54;;;;;;;2.55;2.13;;;7.30;99.90;;;;;;5068306;28;20055;-76
2024/02/07 02:55:21;;;;;;;2.00;1.70;;;7.20;99.90;;;;;;5076833;28;20129;-76
2024/02/07 02:57:51;;;;;;;3.33;1.98;;;7.20;99.90;;;;;;5061848;28;20039;-76
2024/02/07 03:00:20;;;;;;;4.65;2.00;;;7.20;99.90;;;;;;5076868;28;20040;-77
2024/02/07 03:02:47;;;;;;;4.05;2.42;;;7.20;99.90;;;;;;5083701;28;20052;-77
2024/02/07 03:05:37;;;;;;;4.10;2.15;;;7.10;99.90;;;;;;5068854;28;20052;-77
2024/02/07 03:10:54;;;;;;;6.47;1.23;;;6.80;99.90;;;;;;5064631;28;20755;-76
2024/02/07 03:13:22;;;;;;;2.42;0.98;;;6.20;99.90;;;;;;5089398;28;20121;-77
2024/02/07 03:15:52;;;;;;;3.25;1.42;;;6.00;99.90;;;;;;5075623;28;20036;-77
2024/02/07 03:18:20;;;;;;;3.15;0.95;;;5.60;99.90;;;;;;5077602;28;20047;-78
2024/02/07 03:20:49;;;;;;;6.32;1.48;;;5.40;99.90;;;;;;5077889;28;20047;-77
2024/02/07 03:23:18;;;;;;;8.07;1.30;;;5.30;99.90;;;;;;5070876;28;20060;-77
2024/02/07 03:25:45;;;;;;;4.13;1.30;;;5.20;99.90;;;;;;5091086;28;20043;-78
2024/02/07 03:28:16;;;;;;;10.35;2.50;;;5.10;99.90;;;;;;5084595;28;20079;-77
2024/02/07 03:30:42;;;;;;;10.68;1.50;;;5.10;99.90;;;;;;5071820;28;20103;-77
2024/02/07 03:33:11;;;;;;;7.65;1.90;;;4.90;99.90;;;;;;5069757;28;20051;-77
2024/02/07 03:35:39;;;;;;;10.52;2.28;;;4.80;99.90;;;;;;5075580;28;20048;-76
2024/02/07 03:38:06;;;;;;;7.00;4.22;;;4.80;99.90;;;;;;5070816;28;20583;-77
2024/02/07 03:40:33;;;;;;;7.90;4.15;;;4.80;99.90;;;;;;5074506;28;20112;-76
2024/02/07 03:43:01;;;;;;;5.20;3.33;;;4.70;99.90;;;;;;5055898;28;20411;-77
2024/02/07 03:45:30;;;;;;;5.93;3.15;;;4.60;99.90;;;;;;5073807;28;20036;-77
2024/02/07 03:47:57;;;;;;;5.43;3.13;;;4.60;99.90;;;;;;5058800;28;20047;-76
2024/02/07 03:50:27;;;;;;;5.28;3.13;;;4.60;99.90;;;;;;5077107;28;20037;-77
2024/02/07 03:52:55;;;;;;;5.90;3.40;;;4.60;99.90;;;;;;5067758;28;20044;-76
2024/02/07 03:55:21;;;;;;;3.38;2.78;;;4.60;99.90;;;;;;5090941;28;20075;-77
2024/02/07 03:57:49;;;;;;;7.38;3.65;;;4.70;99.90;;;;;;5078042;28;20138;-76
2024/02/07 04:00:16;;;;;;;7.22;3.38;;;4.70;99.90;;;;;;5073049;28;20835;-78
2024/02/07 04:02:46;;;;;;;3.70;3.25;;;4.60;99.90;;;;;;5075554;28;20499;-77
2024/02/07 04:05:13;;;;;;;6.55;3.72;;;4.60;99.90;;;;;;5068073;28;20048;-77
2024/02/07 04:07:42;;;;;;;4.00;3.28;;;4.60;99.90;;;;;;5074015;28;20571;-77
2024/02/07 04:10:09;;;;;;;10.02;4.20;;;4.50;99.90;;;;;;5071601;28;20138;-77
2024/02/07 05:16:13;;;;;;;4.43;3.80;;;2.90;99.90;;;;;;5076951;28;20055;-81
2024/02/07 05:18:40;;;;;;;4.70;3.60;;;2.90;99.90;;;;;;5056898;28;20083;-79
2024/02/07 05:21:12;;;;;;;4.85;3.45;;;2.90;99.90;;;;;;5074538;28;20052;-77
2024/02/07 05:23:42;;;;;;;7.05;3.20;;;3.00;99.90;;;;;;5072304;28;20024;-75
2024/02/07 05:26:10;;;;;;;3.58;2.90;;;3.00;99.90;;;;;;5080876;28;20435;-79
2024/02/07 05:28:39;;;;;;;3.15;2.47;;;2.90;99.90;;;;;;5058958;28;20064;-79
2024/02/07 05:31:06;;;;;;;11.30;3.17;;;2.90;99.90;;;;;;5069885;28;20070;-80
2024/02/07 05:33:33;;;;;;;6.13;3.28;;;2.90;99.90;;;;;;5082797;28;20051;-79
2024/02/07 05:36:01;;;;;;;10.45;3.30;;;2.90;99.90;;;;;;5055002;28;20048;-78
2024/02/07 05:38:28;;;;;;;7.13;3.30;;;2.80;99.90;;;;;;5078894;28;20046;-78
2024/02/07 05:40:55;;;;;;;9.02;3.15;;;2.70;99.90;;;;;;5075625;28;20117;-79
2024/02/07 05:43:22;;;;;;;6.78;3.38;;;2.70;99.90;;;;;;5089915;27;20972;-79
2024/02/07 05:45:49;;;;;;;8.98;3.72;;;2.60;99.90;;;;;;5077029;28;20074;-80
2024/02/07 05:48:16;;;;;;;8.05;3.72;;;2.60;99.90;;;;;;5075897;28;20457;-79
2024/02/07 05:50:44;;;;;;;4.75;3.30;;;2.60;99.90;;;;;;5075442;28;20134;-79
2024/02/07 05:53:11;;;;;;;6.10;3.47;;;2.60;99.90;;;;;;5065362;28;20075;-77
2024/02/07 05:55:38;;;;;;;6.65;3.72;;;2.40;99.90;;;;;;5072510;28;20044;-77
2024/02/07 05:58:05;;;;;;;7.20;3.78;;;2.40;99.90;;;;;;5075836;28;20647;-78
2024/02/07 06:00:32;;;;;;;5.40;4.80;;;2.30;99.90;;;;;;5077378;28;20050;-78
2024/02/07 06:03:05;;;;;;;10.30;4.25;;;2.20;99.90;;;;;;5061262;28;20040;-78
2024/02/07 06:05:33;;;;;;;5.80;3.78;;;2.20;99.90;;;;;;5079380;28;20052;-77
2024/02/07 06:08:00;;;;;;;9.15;4.82;;;2.20;99.90;;;;;;5078929;28;20043;-78
2024/02/07 06:10:27;;;;;;;7.40;4.93;;;2.20;99.90;;;;;;5092527;27;20047;-78
2024/02/07 06:12:53;;;;;;;5.13;4.72;;;2.20;99.90;;;;;;5057523;28;20052;-77
2024/02/07 06:15:20;;;;;;;7.28;5.22;;;2.20;99.90;;;;;;5073599;28;21492;-77
2024/02/07 06:17:47;;;;;;;9.88;5.78;;;2.10;99.90;;;;;;5083308;28;20051;-79
2024/02/07 06:20:14;;;;;;;6.22;5.60;;;2.10;99.90;;;;;;5087703;28;20054;-76
2024/02/07 06:22:45;;;;;;;6.20;5.60;;;2.00;99.90;;;;;;5092720;28;20044;-79
2024/02/07 06:25:13;;;;;;;8.07;6.40;;;2.00;99.90;;;;;;5073268;28;20039;-79
2024/02/07 06:27:41;;;;;;;11.48;5.40;;;2.00;99.90;;;;;;5078765;28;20135;-78
2024/02/07 06:30:08;;;;;;;7.80;6.00;;;1.90;99.90;;;;;;5078224;28;20036;-77
2024/02/07 06:32:35;;;;;;;12.02;7.00;;;1.90;99.90;;;;;;5080288;28;20044;-78
2024/02/07 06:35:03;;;;;;;7.82;6.93;;;1.80;99.90;;;;;;5072577;28;20044;-76
2024/02/07 06:37:29;;;;;;;12.35;7.57;;;1.80;99.90;;;;;;5069057;28;20056;-76
2024/02/07 06:39:57;;;;;;;8.95;7.20;;;1.80;99.90;;;;;;5065678;28;20044;-76
2024/02/07 06:42:24;;;;;;;13.73;9.18;;;1.70;99.90;;;;;;5070536;28;20560;-79
2024/02/07 06:44:51;;;;;;;11.35;7.60;;;1.60;99.90;;;;;;5081383;28;20585;-79
2024/02/07 06:47:17;;;;;;;12.05;8.50;;;1.60;99.90;;;;;;5072171;28;20035;-77
2024/02/07 06:49:44;;;;;;;11.98;9.25;;;1.70;99.90;;;;;;5074998;28;20040;-76
2024/02/07 06:52:11;;;;;;;7.50;6.15;;;1.70;99.90;;;;;;5066352;28;20059;-76
2024/02/07 06:54:38;;;;;;;7.90;5.82;;;1.60;99.90;;;;;;5074099;28;20060;-77
2024/02/07 06:57:04;;;;;;;8.43;5.30;;;1.60;99.90;;;;;;5076698;28;20048;-76
2024/02/07 06:59:31;;;;;;;8.32;5.28;;;1.50;99.90;;;;;;5078025;28;20162;-77
2024/02/07 07:01:58;;;;;;;17.05;7.93;;;1.60;99.90;;;;;;5071544;28;20629;-77
2024/02/07 07:04:25;;;;;;;15.38;7.50;;;1.60;99.90;;;;;;5075702;28;20097;-75
2024/02/07 07:06:52;;;;;;;8.82;6.10;;;1.50;99.90;;;;;;5070218;28;20691;-76
2024/02/07 07:09:18;;;;;;;12.15;7.07;;;1.50;99.90;;;;;;5072677;28;20024;-77
2024/02/07 07:11:45;;;;;;;12.23;7.05;;;1.60;99.90;;;;;;5077558;28;20043;-76
2024/02/07 07:14:12;;;;;;;16.25;7.75;;;1.60;99.90;;;;;;5068824;28;20559;-76
2024/02/07 07:16:40;;;;;;;8.75;6.25;;;1.60;99.90;;;;;;5075245;28;20049;-77
2024/02/07 07:19:06;;;;;;;13.32;7.53;;;1.60;99.90;;;;;;5091282;28;20043;-75
2024/02/07 07:21:39;;;;;;;16.67;7.55;;;1.60;99.90;;;;;;5085960;28;20055;-78
2024/02/07 07:24:06;;;;;;;12.07;7.60;;;1.60;99.90;;;;;;5089062;28;20044;-76
2024/02/07 07:26:33;;;;;;;5.32;4.82;;;1.60;99.90;;;;;;5085550;28;20573;-76
2024/02/07 07:28:59;;;;;;;11.25;8.23;;;1.60;99.90;;;;;;5076373;28;20055;-77
2024/02/07 07:31:26;;;;;;;9.77;7.45;;;1.60;99.90;;;;;;5070111;28;20125;-75
2024/02/07 07:33:55;;;;;;;8.20;6.53;;;1.60;99.90;;;;;;5087142;28;20048;-78
2024/02/07 07:36:26;;;;;;;10.15;7.50;;;1.60;99.90;;;;;;5048060;28;20047;-75
2024/02/07 07:38:54;;;;;;;9.20;7.93;;;1.60;99.90;;;;;;5076783;28;20044;-79
2024/02/07 07:41:21;;;;;;;9.55;7.00;;;1.60;99.90;;;;;;5070211;28;20515;-78
2024/02/07 07:43:48;;;;;;;12.15;7.43;;;1.80;99.90;;;;;;5082016;28;20036;-79
2024/02/07 07:46:15;;;;;;;16.60;10.25;;;1.80;99.90;;;;;;5070949;28;20044;-77
2024/02/07 07:48:42;;;;;;;26.10;8.40;;;1.80;99.90;;;;;;5092340;28;20096;-77
2024/02/07 07:51:09;;;;;;;11.35;7.75;;;1.70;99.90;;;;;;5073430;28;20036;-78
2024/02/07 07:53:36;;;;;;;9.25;6.93;;;1.70;99.90;;;;;;5067202;28;20032;-77
2024/02/07 07:56:03;;;;;;;11.70;8.20;;;1.70;99.90;;;;;;5070570;28;20056;-78
2024/02/07 07:58:30;;;;;;;8.85;7.18;;;1.70;99.90;;;;;;5072330;28;20132;-79
2024/02/07 08:01:19;;;;;;;11.65;8.38;;;1.80;99.90;;;;;;5075704;28;20040;-79
2024/02/07 08:03:46;;;;;;;12.50;8.43;;;1.90;99.90;;;;;;5078605;28;20683;-79
2024/02/07 08:06:15;;;;;;;14.75;9.77;;;1.80;99.90;;;;;;5070210;28;20044;-79
2024/02/07 08:08:42;;;;;;;15.40;10.30;;;1.80;99.90;;;;;;5080622;28;20051;-79
2024/02/07 08:11:09;;;;;;;16.17;10.45;;;1.90;99.90;;;;;;5086934;28;20036;-78
2024/02/07 08:13:35;;;;;;;19.25;9.90;;;1.80;99.90;;;;;;5082349;28;20090;-78
2024/02/07 08:16:02;;;;;;;21.40;11.65;;;1.90;99.90;;;;;;5083793;28;20050;-78
2024/02/07 08:18:31;;;;;;;28.73;13.55;;;2.00;99.90;;;;;;5098800;27;20052;-79
2024/02/07 08:20:58;;;;;;;27.05;11.77;;;2.00;99.90;;;;;;5083754;28;20032;-79
2024/02/07 08:23:24;;;;;;;30.30;14.30;;;2.00;99.90;;;;;;5076835;28;20091;-79
2024/02/07 08:25:51;;;;;;;22.35;12.38;;;1.90;99.90;;;;;;5080126;28;20044;-78
2024/02/07 08:28:18;;;;;;;33.53;13.88;;;1.90;99.90;;;;;;5083672;28;20032;-79
2024/02/07 08:30:45;;;;;;;43.20;15.73;;;1.90;99.90;;;;;;5083285;28;20055;-79
2024/02/07 08:33:12;;;;;;;35.35;13.73;;;2.00;99.90;;;;;;5077345;28;20388;-79
2024/02/07 08:35:39;;;;;;;36.53;14.02;;;1.90;99.90;;;;;;5076713;28;20062;-80
2024/02/07 08:38:06;;;;;;;41.90;16.25;;;2.00;99.90;;;;;;5082525;28;20061;-78
2024/02/07 08:40:35;;;;;;;49.75;15.85;;;1.90;99.90;;;;;;5084447;28;20052;-79
2024/02/07 08:43:06;;;;;;;40.38;15.55;;;1.90;99.90;;;;;;5088562;28;20070;-80
2024/02/07 08:45:34;;;;;;;43.33;15.70;;;1.90;99.90;;;;;;5079245;28;20060;-79
2024/02/07 08:48:01;;;;;;;55.58;17.92;;;2.00;99.90;;;;;;5082140;28;20044;-80
2024/02/07 08:50:27;;;;;;;57.88;18.35;;;2.00;99.90;;;;;;5083345;28;20120;-79
2024/02/07 08:52:54;;;;;;;76.43;20.33;;;1.90;99.90;;;;;;5080025;28;20623;-80
2024/02/07 08:55:21;;;;;;;65.25;19.70;;;2.00;99.90;;;;;;5082978;28;20056;-79
2024/02/07 08:57:48;;;;;;;51.75;18.73;;;2.10;99.90;;;;;;5087787;28;20056;-78
2024/02/07 09:00:15;;;;;;;72.90;23.23;;;2.10;99.90;;;;;;5090450;28;20060;-78
2024/02/07 09:02:42;;;;;;;101.97;26.85;;;2.20;99.90;;;;;;5088671;28;20062;-78
2024/02/07 09:05:09;;;;;;;57.70;20.23;;;2.20;99.90;;;;;;5092543;28;20309;-76
2024/02/07 09:07:36;;;;;;;789.17;124.25;;;2.20;99.90;;;;;;5077593;28;20044;-77
2024/02/07 09:10:03;;;;;;;299.35;47.42;;;2.20;99.90;;;;;;5077295;28;20047;-78
2024/02/07 09:12:30;;;;;;;84.28;23.65;;;2.30;99.90;;;;;;5074118;28;20617;-78
2024/02/07 09:14:57;;;;;;;95.75;26.02;;;2.30;99.90;;;;;;5085163;28;20066;-77
2024/02/07 09:17:24;;;;;;;82.28;23.73;;;2.30;99.90;;;;;;5082713;28;20035;-78
2024/02/07 09:19:52;;;;;;;71.75;23.08;;;2.40;99.90;;;;;;5086005;28;20052;-77
2024/02/07 09:22:19;;;;;;;173.68;30.48;;;2.40;99.90;;;;;;5082130;28;20040;-77
2024/02/07 09:24:45;;;;;;;108.68;36.88;;;2.40;99.90;;;;;;5086259;28;20071;-78
2024/02/07 09:27:12;;;;;;;147.68;31.02;;;2.40;99.90;;;;;;5078402;28;20048;-76
2024/02/07 09:29:39;;;;;;;104.95;27.55;;;2.50;99.90;;;;;;5079836;28;20146;-77
2024/02/07 09:32:06;;;;;;;88.90;26.98;;;2.50;99.90;;;;;;5081417;28;20051;-79
2024/02/07 09:34:33;;;;;;;87.95;24.77;;;2.60;99.90;;;;;;5081083;28;20260;-78
2024/02/07 09:37:00;;;;;;;84.10;27.08;;;2.60;99.90;;;;;;5086330;28;20040;-80
2024/02/07 09:39:27;;;;;;;112.57;33.28;;;2.70;99.90;;;;;;5088031;28;20133;-78
2024/02/07 09:41:58;;;;;;;178.80;39.63;;;2.70;99.90;;;;;;5089252;28;20074;-80
2024/02/07 09:44:27;;;;;;;70.70;28.27;;;2.60;99.90;;;;;;5085983;28;20093;-78
2024/02/07 09:46:59;;;;;;;109.13;30.02;;;2.70;99.90;;;;;;5084867;28;20036;-80
2024/02/07 09:49:28;;;;;;;104.53;33.30;;;2.70;99.90;;;;;;5096522;27;20041;-80
2024/02/07 09:51:56;;;;;;;74.25;27.80;;;2.70;99.90;;;;;;5081754;28;20075;-82
2024/02/07 09:54:23;;;;;;;76.38;29.42;;;2.60;99.90;;;;;;5084322;28;20102;-82
2024/02/07 09:56:52;;;;;;;86.00;28.85;;;2.70;99.90;;;;;;5088414;28;20674;-81
2024/02/07 09:59:21;;;;;;;132.65;36.25;;;2.80;99.90;;;;;;5094715;28;20067;-83
2024/02/07 10:01:48;;;;;;;266.60;46.67;;;2.80;99.90;;;;;;5093003;28;20042;-83
2024/02/07 10:04:28;;;;;;;119.55;31.95;;;2.80;99.90;;;;;;5076844;28;20142;-83
2024/02/07 10:06:57;;;;;;;105.13;32.15;;;2.80;99.90;;;;;;5073727;28;20070;-83
2024/02/07 10:09:25;;;;;;;137.80;38.75;;;2.90;99.90;;;;;;5089579;28;20043;-83
2024/02/07 10:11:54;;;;;;;81.25;29.75;;;2.90;99.90;;;;;;5090823;28;20040;-83
2024/02/07 10:14:22;;;;;;;78.95;28.75;;;2.80;99.90;;;;;;5074129;28;20037;-79
2024/02/07 10:16:49;;;;;;;84.72;28.08;;;2.90;99.90;;;;;;5109006;28;20068;-79
2024/02/07 10:19:16;;;;;;;64.00;25.88;;;3.00;99.90;;;;;;5106006;28;20103;-80
2024/02/07 10:21:43;;;;;;;75.85;26.17;;;2.90;99.90;;;;;;5102979;28;20047;-80
2024/02/07 10:24:09;;;;;;;88.07;29.98;;;2.90;99.90;;;;;;5078530;28;20031;-78
2024/02/07 10:26:36;;;;;;;91.90;32.83;;;2.90;99.90;;;;;;5089529;28;20052;-81
2024/02/07 10:29:06;;;;;;;52.20;25.75;;;2.90;99.90;;;;;;5089519;27;20051;-81
2024/02/07 10:31:33;;;;;;;79.30;28.20;;;2.90;99.90;;;;;;5076846;28;20048;-82
2024/02/07 10:34:00;;;;;;;86.10;29.40;;;2.90;99.90;;;;;;5069152;28;20054;-82
2024/02/07 10:36:27;;;;;;;64.30;27.02;;;3.00;99.90;;;;;;5077796;28;20506;-85
2024/02/07 10:39:02;;;;;;;54.55;27.25;;;3.00;99.90;;;;;;5068083;28;20044;-83
2024/02/07 10:41:29;;;;;;;67.75;26.98;;;3.00;99.90;;;;;;5068971;28;20036;-81
2024/02/07 10:44:09;;;;;;;65.28;27.85;;;3.00;99.90;;;;;;5063526;28;21180;-82
2024/02/07 10:46:36;;;;;;;60.40;27.60;;;3.00;99.90;;;;;;5073184;28;20047;-80
2024/02/07 10:49:03;;;;;;;60.35;26.95;;;3.00;99.90;;;;;;5096301;27;20063;-85
2024/02/07 10:51:32;;;;;;;65.43;26.80;;;3.00;99.90;;;;;;5075302;28;20108;-82
2024/02/07 10:54:05;;;;;;;60.17;28.88;;;2.90;99.90;;;;;;5079248;28;20105;-81
2024/02/07 10:56:37;;;;;;;66.10;30.17;;;3.00;99.90;;;;;;5081016;28;20058;-83
2024/02/07 10:59:04;;;;;;;91.22;31.65;;;3.10;99.90;;;;;;5096116;28;20059;-85
2024/02/07 11:01:33;;;;;;;70.43;27.17;;;3.00;99.90;;;;;;5076220;28;20044;-82
2024/02/07 11:04:00;;;;;;;56.22;28.42;;;2.90;99.90;;;;;;5081758;28;20075;-85
2024/02/07 11:06:28;;;;;;;83.38;31.20;;;3.10;99.90;;;;;;5060579;28;20562;-83
2024/02/07 11:08:57;;;;;;;74.95;29.92;;;3.10;99.90;;;;;;5095408;28;20040;-82
2024/02/07 11:11:25;;;;;;;56.97;25.52;;;3.20;99.90;;;;;;5063251;28;20043;-81
2024/02/07 11:13:52;;;;;;;52.08;24.70;;;3.30;99.90;;;;;;5072922;28;20052;-82
2024/02/07 11:16:23;;;;;;;58.13;26.15;;;3.20;99.90;;;;;;5075070;28;20052;-81
2024/02/07 11:18:51;;;;;;;42.60;23.75;;;3.20;99.90;;;;;;5077437;28;20611;-82
2024/02/07 11:21:23;;;;;;;52.33;23.08;;;3.30;99.90;;;;;;5080283;28;20047;-81
2024/02/07 11:23:52;;;;;;;49.53;26.27;;;3.30;99.90;;;;;;5078462;28;20635;-82
2024/02/07 11:26:20;;;;;;;53.83;27.00;;;3.40;99.90;;;;;;5079978;28;20051;-81
2024/02/07 11:28:47;;;;;;;47.20;24.50;;;3.40;99.90;;;;;;5073203;28;20637;-82
2024/02/07 11:31:17;;;;;;;40.80;23.05;;;3.50;99.90;;;;;;5068322;28;20043;-81
2024/02/07 11:33:51;;;;;;;36.30;21.50;;;3.60;99.90;;;;;;5075626;28;20174;-82
2024/02/07 11:36:19;;;;;;;37.17;24.10;;;3.50;99.90;;;;;;5089123;28;20052;-81
2024/02/07 11:38:58;;;;;;;35.55;21.52;;;3.60;99.90;;;;;;5083880;28;20079;-81
2024/02/07 11:41:27;;;;;;;40.03;28.67;;;3.60;99.90;;;;;;5057603;28;20044;-82
2024/02/07 11:44:04;;;;;;;39.90;23.35;;;3.50;99.90;;;;;;5083651;28;20093;-84
2024/02/07 11:46:31;;;;;;;42.70;24.85;;;3.40;99.90;;;;;;5085926;28;20044;-82
2024/02/07 11:49:01;;;;;;;40.72;23.70;;;3.30;99.90;;;;;;5082550;28;20559;-80
2024/02/07 11:51:32;;;;;;;39.05;26.50;;;3.30;99.90;;;;;;5089132;28;20059;-80
2024/02/07 11:53:59;;;;;;;47.83;28.70;;;3.40;99.90;;;;;;5090681;28;20044;-82
2024/02/07 11:56:29;;;;;;;48.63;26.42;;;3.60;99.90;;;;;;5069026;28;20108;-82
2024/02/07 11:58:56;;;;;;;40.03;27.02;;;3.60;99.90;;;;;;5086846;28;20052;-82
2024/02/07 12:01:27;;;;;;;45.55;26.50;;;3.60;99.90;;;;;;5078850;28;20048;-82
2024/02/07 12:03:55;;;;;;;32.78;22.45;;;3.60;99.90;;;;;;5077336;28;20440;-80
2024/02/07 12:06:23;;;;;;;33.22;23.17;;;3.70;99.90;;;;;;5089608;27;20047;-80
2024/02/07 12:08:50;;;;;;;34.47;23.65;;;3.80;99.90;;;;;;5079959;28;20117;-79
2024/02/07 12:11:16;;;;;;;39.13;25.48;;;3.80;99.90;;;;;;5060595;28;20570;-79
2024/02/07 12:13:43;;;;;;;38.00;25.30;;;3.80;99.90;;;;;;5061809;28;20056;-82
2024/02/07 12:16:10;;;;;;;32.92;22.88;;;3.90;99.90;;;;;;5092356;27;20128;-82
2024/02/07 12:18:43;;;;;;;40.45;22.73;;;3.80;99.90;;;;;;5068812;28;20154;-81
2024/02/07 12:21:10;;;;;;;34.67;23.45;;;3.70;99.90;;;;;;5087016;28;20105;-82
2024/02/07 12:23:37;;;;;;;37.22;24.70;;;3.80;99.90;;;;;;5066405;28;20059;-82
2024/02/07 12:26:04;;;;;;;42.50;25.80;;;3.80;99.90;;;;;;5083281;28;20047;-82
2024/02/07 12:28:31;;;;;;;60.38;28.45;;;3.80;99.90;;;;;;5081965;28;20090;-81
2024/02/07 12:30:59;;;;;;;70.07;28.83;;;3.90;99.90;;;;;;5083162;28;20051;-82
2024/02/07 12:33:27;;;;;;;45.63;29.10;;;3.80;99.90;;;;;;5075776;28;20052;-80
2024/02/07 12:35:59;;;;;;;89.40;33.38;;;3.70;99.90;;;;;;5075002;28;20131;-80
2024/02/07 12:38:26;;;;;;;174.43;39.97;;;3.60;99.90;;;;;;5086784;28;20121;-81
2024/02/07 12:40:55;;;;;;;486.23;79.75;;;3.60;99.90;;;;;;5089140;28;20138;-80
2024/02/07 12:43:24;;;;;;;97.25;33.05;;;3.60;99.90;;;;;;5082792;28;20078;-80
2024/02/07 12:45:55;;;;;;;257.42;53.00;;;3.70;99.90;;;;;;5080641;28;20051;-79
2024/02/07 12:48:23;;;;;;;184.80;45.33;;;3.80;99.90;;;;;;5092090;27;20040;-79
2024/02/07 12:50:51;;;;;;;242.70;49.17;;;3.80;99.90;;;;;;5087346;28;20135;-79
2024/02/07 12:53:18;;;;;;;499.50;74.20;;;3.80;99.90;;;;;;5087459;28;20079;-79
2024/02/07 12:55:48;;;;;;;128.68;33.42;;;3.90;99.90;;;;;;5082771;28;20040;-78
2024/02/07 12:58:16;;;;;;;55.50;29.05;;;3.80;99.90;;;;;;5089687;28;20078;-79
2024/02/07 13:00:43;;;;;;;173.48;34.58;;;3.90;99.90;;;;;;5085165;28;20044;-77
2024/02/07 13:03:10;;;;;;;52.13;28.92;;;3.90;99.90;;;;;;5085061;28;20574;-79
2024/02/07 13:05:38;;;;;;;40.75;26.90;;;4.00;99.90;;;;;;5065134;28;20048;-78
2024/02/07 13:08:09;;;;;;;47.90;29.45;;;3.90;99.90;;;;;;5073470;28;20040;-79
2024/02/07 13:10:39;;;;;;;35.63;29.10;;;4.00;99.90;;;;;;5065525;28;20127;-80
2024/02/07 13:13:06;;;;;;;36.78;29.00;;;3.90;99.90;;;;;;5085671;28;20130;-80
2024/02/07 13:15:33;;;;;;;36.45;27.58;;;4.00;99.90;;;;;;5081882;28;20056;-78
2024/02/07 13:18:02;;;;;;;43.15;28.48;;;4.10;99.90;;;;;;5077464;28;20055;-78
2024/02/07 13:20:30;;;;;;;45.22;29.65;;;4.20;99.90;;;;;;5087599;27;20550;-78
2024/02/07 13:22:57;;;;;;;96.78;30.95;;;4.30;99.90;;;;;;5076228;28;20036;-79
2024/02/07 13:25:24;;;;;;;170.35;37.17;;;4.40;99.90;;;;;;5076125;28;20116;-78
2024/02/07 13:27:51;;;;;;;131.55;36.75;;;4.40;99.90;;;;;;5080702;28;20063;-79
2024/02/07 13:30:18;;;;;;;59.20;29.23;;;4.50;99.90;;;;;;5075715;28;20119;-75
2024/02/07 13:32:45;;;;;;;47.17;26.33;;;4.50;99.90;;;;;;5094367;27;20052;-77
2024/02/07 13:35:15;;;;;;;36.97;27.33;;;4.50;99.90;;;;;;5074240;28;20059;-75
2024/02/07 13:37:42;;;;;;;90.22;34.25;;;4.60;99.90;;;;;;5071207;28;20043;-78
2024/02/07 13:40:09;;;;;;;368.70;56.17;;;4.60;99.90;;;;;;5067726;27;20589;-77
2024/02/07 13:42:37;;;;;;;84.25;31.23;;;4.60;99.90;;;;;;5061103;28;20048;-79
2024/02/07 13:45:06;;;;;;;69.00;33.40;;;4.60;99.90;;;;;;5061757;28;20049;-79
2024/02/07 13:47:33;;;;;;;136.70;36.88;;;4.50;99.90;;;;;;5079676;27;20055;-77
2024/02/07 13:50:00;;;;;;;79.90;30.17;;;4.50;99.90;;;;;;5075682;28;20125;-77
2024/02/07 13:52:28;;;;;;;38.50;27.10;;;4.40;99.90;;;;;;5088707;27;20044;-76
2024/02/07 13:54:56;;;;;;;28.50;25.55;;;4.40;99.90;;;;;;5080000;28;20071;-76